Time;durP1;ratioP1;P1;durP2;ratioP2;P2;SDS_P1;SDS_P2;PMS_P1;PMS_P2;Temp;Humidity;BMP_temperature;BMP_pressure;BME280_temperature;BME280_humidity;BME280_pressure;Samples;Min_cycle;Max_cycle;Signal;HPM_P1;HPM_P2
2021/06/28 00:00:16;;;;;;;10.23;8.25;;;;;;;21.30;74.82;100197.03;5001985;28;20541;-61
2021/06/28 00:02:43;;;;;;;8.82;7.93;;;;;;;21.30;74.50;100194.34;4985876;28;20073;-61
2021/06/28 00:05:12;;;;;;;9.02;8.13;;;;;;;21.29;74.42;100194.47;4998096;28;20060;-62
2021/06/28 00:07:40;;;;;;;9.23;8.20;;;;;;;21.26;74.37;100187.53;5004312;28;22931;-61
2021/06/28 00:10:08;;;;;;;8.75;7.95;;;;;;;21.26;74.50;100187.53;4992968;28;20050;-60
2021/06/28 00:12:35;;;;;;;9.40;8.40;;;;;;;21.25;74.91;100188.53;4999644;28;20053;-60
2021/06/28 00:15:06;;;;;;;8.50;7.70;;;;;;;21.21;75.01;100183.59;4989342;28;20046;-61
2021/06/28 00:17:32;;;;;;;8.95;8.05;;;;;;;21.16;75.14;100188.53;5001718;28;20429;-59
2021/06/28 00:19:59;;;;;;;9.40;7.90;;;;;;;21.12;75.45;100179.88;5009215;28;20056;-61
2021/06/28 00:22:25;;;;;;;9.32;8.15;;;;;;;21.09;75.73;100185.56;5002995;28;20507;-61
2021/06/28 00:24:51;;;;;;;8.48;7.72;;;;;;;21.09;75.62;100185.56;4997158;28;20061;-61
2021/06/28 00:27:22;;;;;;;9.55;8.52;;;;;;;21.06;75.80;100180.47;4998885;28;20054;-61
2021/06/28 00:29:50;;;;;;;9.50;8.60;;;;;;;21.02;76.04;100179.06;4994092;28;20066;-61
2021/06/28 00:32:18;;;;;;;9.00;8.20;;;;;;;21.00;76.84;100175.66;5001811;28;20073;-61
2021/06/28 00:34:45;;;;;;;9.07;8.20;;;;;;;20.99;76.53;100172.13;4990886;28;20057;-61
2021/06/28 00:37:12;;;;;;;9.00;7.93;;;;;;;20.99;76.21;100182.03;4994932;28;20049;-60
2021/06/28 00:39:39;;;;;;;8.80;7.90;;;;;;;20.96;76.07;100176.94;4997436;28;20101;-61
2021/06/28 00:42:05;;;;;;;9.25;8.35;;;;;;;20.94;76.04;100173.53;5011376;28;20053;-61
2021/06/28 00:44:32;;;;;;;9.07;8.27;;;;;;;20.91;76.27;100177.38;5006492;28;20054;-61
2021/06/28 00:46:58;;;;;;;9.38;8.48;;;;;;;20.84;76.63;100173.56;5014962;28;20046;-60
2021/06/28 00:49:25;;;;;;;9.35;8.48;;;;;;;20.76;76.86;100175.28;4995163;28;20049;-59
2021/06/28 00:51:56;;;;;;;9.45;8.50;;;;;;;20.70;76.56;100173.13;4984350;28;20049;-62
2021/06/28 00:54:23;;;;;;;9.07;8.18;;;;;;;20.68;76.52;100173.28;4995049;28;20049;-60
2021/06/28 00:56:50;;;;;;;8.65;7.45;;;;;;;20.67;76.18;100171.56;5001654;28;20048;-61
2021/06/28 00:59:18;;;;;;;8.85;8.02;;;;;;;20.67;76.00;100169.72;4999010;28;20057;-62
2021/06/28 01:01:45;;;;;;;9.50;8.60;;;;;;;20.67;76.23;100172.44;4991177;28;20061;-61
2021/06/28 01:04:11;;;;;;;8.75;7.90;;;;;;;20.65;76.44;100163.63;4993303;28;20133;-60
2021/06/28 01:06:38;;;;;;;8.93;8.02;;;;;;;20.66;76.13;100162.66;4994226;28;20072;-60
2021/06/28 01:09:05;;;;;;;8.98;8.18;;;;;;;20.69;76.65;100169.59;4998963;28;20053;-60
2021/06/28 01:11:31;;;;;;;9.18;8.20;;;;;;;20.71;76.58;100173.00;5006039;28;20414;-60
2021/06/28 01:13:59;;;;;;;8.73;7.93;;;;;;;20.72;76.72;100172.00;5018322;28;20049;-61
2021/06/28 01:16:25;;;;;;;10.52;8.45;;;;;;;20.70;76.52;100165.91;5003137;28;20042;-61
2021/06/28 01:18:53;;;;;;;9.25;8.35;;;;;;;20.71;76.95;100172.16;4997690;28;20563;-60
2021/06/28 01:21:20;;;;;;;9.65;8.55;;;;;;;20.69;76.82;100166.06;4994142;28;20054;-61
2021/06/28 01:23:47;;;;;;;10.32;9.15;;;;;;;20.67;76.89;100172.44;4998411;28;20058;-59
2021/06/28 01:26:14;;;;;;;8.95;8.05;;;;;;;20.66;77.00;100176.09;4994883;28;20520;-60
2021/06/28 01:28:41;;;;;;;10.38;8.70;;;;;;;20.65;77.22;100182.47;4990749;28;20046;-61
2021/06/28 01:31:10;;;;;;;11.45;9.13;;;;;;;20.64;77.61;100183.47;5004207;28;20062;-60
2021/06/28 01:33:37;;;;;;;9.20;8.30;;;;;;;20.62;77.60;100185.44;5020543;28;20046;-61
2021/06/28 01:36:05;;;;;;;9.40;8.60;;;;;;;20.59;77.87;100180.38;5017420;28;20054;-61
2021/06/28 01:38:31;;;;;;;10.30;9.30;;;;;;;20.61;78.24;100178.38;5024421;28;20053;-61
2021/06/28 01:40:58;;;;;;;9.93;8.98;;;;;;;20.62;78.36;100182.75;5037020;28;20056;-61
2021/06/28 01:43:25;;;;;;;9.52;8.65;;;;;;;20.64;78.34;100180.78;5010355;28;20057;-61
2021/06/28 01:45:53;;;;;;;9.50;8.50;;;;;;;20.66;78.18;100184.19;5019978;28;20061;-61
2021/06/28 01:48:20;;;;;;;9.63;8.73;;;;;;;20.64;78.26;100178.09;5010611;28;20056;-61
2021/06/28 01:50:48;;;;;;;9.75;8.77;;;;;;;20.58;77.80;100183.19;5021494;28;20436;-60
2021/06/28 01:53:14;;;;;;;9.45;8.55;;;;;;;20.50;78.43;100180.34;5024160;28;20053;-61
2021/06/28 01:55:41;;;;;;;9.40;8.50;;;;;;;20.42;78.80;100189.13;5023839;28;20053;-60
2021/06/28 01:58:11;;;;;;;9.82;8.93;;;;;;;20.38;79.31;100189.53;5022052;28;20229;-60
2021/06/28 02:00:41;;;;;;;9.95;9.05;;;;;;;20.31;79.73;100189.19;5026907;28;20045;-61
2021/06/28 02:03:11;;;;;;;10.18;8.38;;;;;;;20.26;80.15;100195.03;5014514;28;20045;-61
2021/06/28 02:05:48;;;;;;;11.30;8.88;;;;;;;20.22;80.81;100193.59;5018234;28;20056;-61
2021/06/28 02:08:17;;;;;;;11.90;9.02;;;;;;;20.22;81.26;100200.81;5015818;28;20060;-61
2021/06/28 02:10:48;;;;;;;9.13;8.27;;;;;;;20.18;81.31;100197.53;5018834;28;20076;-61
2021/06/28 02:13:16;;;;;;;9.45;8.30;;;;;;;20.18;81.39;100207.44;5017556;28;20147;-61
2021/06/28 02:15:43;;;;;;;10.65;8.93;;;;;;;20.18;81.29;100208.28;5022335;28;20090;-62
2021/06/28 02:18:09;;;;;;;10.40;8.55;;;;;;;20.17;81.34;100206.59;5019172;28;20053;-61
2021/06/28 02:20:36;;;;;;;10.02;9.02;;;;;;;20.18;81.98;100202.06;5028359;28;20106;-61
2021/06/28 02:23:21;;;;;;;10.70;8.77;;;;;;;20.18;81.40;100219.03;5018424;28;20038;-61
2021/06/28 02:26:03;;;;;;;9.80;8.80;;;;;;;20.17;81.38;100216.47;5018736;28;20053;-61
2021/06/28 02:28:32;;;;;;;9.90;8.90;;;;;;;20.20;81.88;100208.16;5020120;28;20057;-61
2021/06/28 02:30:59;;;;;;;9.65;8.52;;;;;;;20.23;81.62;100203.34;5027237;28;20058;-61
2021/06/28 02:33:26;;;;;;;9.32;8.43;;;;;;;20.26;81.45;100199.53;5023203;28;20057;-61
2021/06/28 02:35:53;;;;;;;9.32;8.40;;;;;;;20.29;81.70;100196.59;5022681;28;20048;-61
2021/06/28 02:38:20;;;;;;;10.27;9.05;;;;;;;20.33;81.43;100195.28;5023887;28;20051;-61
2021/06/28 02:40:47;;;;;;;10.02;8.93;;;;;;;20.34;81.27;100202.38;5020038;28;20053;-60
2021/06/28 02:43:13;;;;;;;9.95;8.90;;;;;;;20.33;81.28;100195.28;5007608;28;20468;-61
2021/06/28 02:45:40;;;;;;;10.55;9.55;;;;;;;20.29;80.98;100189.38;5015065;28;20045;-62
2021/06/28 02:48:08;;;;;;;12.70;9.13;;;;;;;20.23;81.35;100189.91;5003042;28;20128;-61
2021/06/28 02:50:36;;;;;;;12.35;8.60;;;;;;;20.18;81.68;100192.16;5001203;28;20187;-61
2021/06/28 02:53:03;;;;;;;9.50;8.60;;;;;;;20.19;82.07;100196.53;5022831;28;20632;-61
2021/06/28 02:55:31;;;;;;;10.35;8.63;;;;;;;20.18;82.09;100192.16;5018985;28;20095;-60
2021/06/28 02:57:58;;;;;;;9.23;8.43;;;;;;;20.19;82.28;100187.63;5010114;28;20528;-59
2021/06/28 03:00:25;;;;;;;9.88;8.88;;;;;;;20.15;82.07;100178.13;5017447;28;20045;-60
2021/06/28 03:02:52;;;;;;;9.43;8.48;;;;;;;20.03;82.29;100180.09;5018147;28;20065;-61
2021/06/28 03:05:19;;;;;;;12.30;9.70;;;;;;;19.98;82.92;100186.88;5007610;28;20115;-60
2021/06/28 03:07:45;;;;;;;10.15;9.10;;;;;;;19.90;83.44;100188.41;5033291;28;20485;-61
2021/06/28 03:10:14;;;;;;;11.18;10.05;;;;;;;19.84;83.80;100178.19;5027887;28;20064;-60
2021/06/28 03:12:41;;;;;;;9.68;8.77;;;;;;;19.83;84.37;100187.25;5011957;28;20054;-61
2021/06/28 03:15:11;;;;;;;10.55;9.45;;;;;;;19.84;84.55;100178.19;5046313;28;20056;-61
2021/06/28 03:17:38;;;;;;;11.32;8.95;;;;;;;19.84;84.58;100174.66;5016339;28;20425;-61
2021/06/28 03:20:06;;;;;;;13.05;9.05;;;;;;;19.87;84.26;100182.44;5022089;28;20045;-59
2021/06/28 03:22:38;;;;;;;10.63;9.40;;;;;;;19.90;83.95;100193.78;5024480;28;20057;-61
2021/06/28 03:25:09;;;;;;;9.98;9.02;;;;;;;19.90;83.86;100207.22;5014830;28;20465;-61
2021/06/28 03:27:36;;;;;;;11.95;9.10;;;;;;;19.92;83.62;100196.34;5014527;28;20045;-61
2021/06/28 03:30:04;;;;;;;11.80;9.02;;;;;;;19.89;83.39;100200.13;5016954;28;22873;-62
2021/06/28 03:32:31;;;;;;;9.73;8.77;;;;;;;19.86;83.06;100192.34;5018764;28;20051;-62
2021/06/28 03:34:58;;;;;;;12.48;9.15;;;;;;;19.84;83.50;100188.94;5022043;28;20053;-61
2021/06/28 03:37:24;;;;;;;13.15;9.52;;;;;;;19.82;83.66;100185.56;5017678;28;20052;-60
2021/06/28 03:39:51;;;;;;;10.00;8.98;;;;;;;19.79;83.90;100174.22;5028173;28;20060;-61
2021/06/28 03:42:18;;;;;;;13.93;9.50;;;;;;;19.80;84.19;100184.84;5026983;28;20049;-62
2021/06/28 03:44:44;;;;;;;12.20;9.68;;;;;;;19.85;84.63;100189.78;5021740;28;20060;-62
2021/06/28 03:47:11;;;;;;;9.55;8.65;;;;;;;19.92;84.25;100183.75;5019950;28;22437;-60
2021/06/28 03:49:37;;;;;;;11.88;9.15;;;;;;;19.98;83.81;100178.81;5013196;28;20049;-61
2021/06/28 03:52:04;;;;;;;11.30;9.25;;;;;;;19.99;83.14;100175.16;5015984;28;20049;-62
2021/06/28 03:54:30;;;;;;;11.20;9.85;;;;;;;20.00;83.23;100185.75;5023896;28;20063;-61
2021/06/28 03:56:57;;;;;;;11.13;9.85;;;;;;;19.99;83.20;100183.22;5013308;28;20072;-60
2021/06/28 03:59:24;;;;;;;12.00;8.80;;;;;;;19.98;83.49;100179.69;5018849;28;20050;-61
2021/06/28 04:01:50;;;;;;;9.98;8.98;;;;;;;20.01;83.55;100179.38;5021877;28;20044;-61
2021/06/28 04:04:17;;;;;;;11.43;9.48;;;;;;;20.04;83.70;100173.72;5013006;28;20059;-62
2021/06/28 04:06:44;;;;;;;10.63;9.07;;;;;;;20.07;83.68;100164.53;5018843;28;20054;-59
2021/06/28 04:09:10;;;;;;;12.15;9.15;;;;;;;20.08;83.57;100167.09;5017128;28;20063;-61
2021/06/28 04:11:36;;;;;;;10.95;9.82;;;;;;;20.11;83.32;100163.28;5009440;28;20761;-61
2021/06/28 04:14:03;;;;;;;10.98;9.68;;;;;;;20.11;83.29;100163.28;5014673;28;20060;-60
2021/06/28 04:16:30;;;;;;;11.20;9.65;;;;;;;20.11;83.57;100150.69;5018383;28;20041;-61
2021/06/28 04:18:56;;;;;;;11.13;10.02;;;;;;;20.16;83.36;100148.44;5019535;28;20088;-61
2021/06/28 04:21:23;;;;;;;11.98;10.07;;;;;;;20.17;83.80;100152.81;5014180;28;20754;-60
2021/06/28 04:23:49;;;;;;;11.55;10.30;;;;;;;20.18;83.26;100149.13;5021328;28;20060;-61
2021/06/28 04:26:16;;;;;;;11.77;9.93;;;;;;;20.18;83.19;100159.91;5022686;28;20084;-59
2021/06/28 04:28:42;;;;;;;11.20;10.10;;;;;;;20.19;83.22;100161.59;5019110;28;20402;-61
2021/06/28 04:31:09;;;;;;;10.73;9.68;;;;;;;20.22;83.62;100161.31;5015962;28;20064;-61
2021/06/28 04:33:36;;;;;;;11.55;10.32;;;;;;;20.27;83.30;100160.91;5014792;28;20061;-61
2021/06/28 04:36:02;;;;;;;12.68;10.88;;;;;;;20.30;83.50;100161.47;5027094;28;20074;-61
2021/06/28 04:38:29;;;;;;;15.07;11.18;;;;;;;20.36;83.38;100161.91;5019128;28;20045;-61
2021/06/28 04:40:56;;;;;;;12.85;11.65;;;;;;;20.45;83.21;100156.59;5023232;28;20824;-61
2021/06/28 04:43:22;;;;;;;15.95;11.55;;;;;;;20.48;83.09;100156.28;5017689;28;20139;-60
2021/06/28 04:45:49;;;;;;;12.35;11.13;;;;;;;20.54;83.08;100161.09;5022488;28;20060;-61
2021/06/28 04:48:15;;;;;;;14.50;11.35;;;;;;;20.65;82.96;100160.94;5022144;28;20056;-60
2021/06/28 04:50:42;;;;;;;12.48;10.88;;;;;;;20.76;82.56;100170.75;5014104;28;21657;-62
2021/06/28 04:53:09;;;;;;;13.40;11.48;;;;;;;20.89;82.23;100162.38;5028204;28;21147;-61
2021/06/28 04:55:35;;;;;;;13.13;11.75;;;;;;;20.96;81.77;100155.41;5014032;28;20045;-60
2021/06/28 04:58:02;;;;;;;12.68;11.32;;;;;;;21.03;81.13;100159.22;5022474;28;21339;-61
2021/06/28 05:00:29;;;;;;;12.20;10.98;;;;;;;21.13;80.56;100165.44;5013928;28;20053;-61
2021/06/28 05:02:55;;;;;;;12.82;11.60;;;;;;;21.25;80.37;100166.97;5029699;28;20045;-62
2021/06/28 05:05:22;;;;;;;14.38;12.10;;;;;;;21.40;79.69;100163.84;5026261;28;20168;-61
2021/06/28 05:07:49;;;;;;;15.57;12.00;;;;;;;21.53;78.39;100169.75;5016125;28;20056;-62
2021/06/28 05:10:16;;;;;;;13.95;12.00;;;;;;;21.63;77.76;100162.47;5023517;28;20048;-62
2021/06/28 05:12:43;;;;;;;13.40;10.95;;;;;;;21.73;77.54;100155.19;5012323;28;20053;-59
2021/06/28 05:15:11;;;;;;;13.20;11.65;;;;;;;21.79;76.60;100164.53;5011228;28;20080;-60
2021/06/28 05:17:39;;;;;;;17.00;13.07;;;;;;;21.80;76.02;100174.31;5016868;28;20056;-62
2021/06/28 05:20:10;;;;;;;17.35;12.02;;;;;;;21.81;76.00;100176.84;5011087;28;20577;-61
2021/06/28 05:22:37;;;;;;;14.57;12.00;;;;;;;21.85;75.79;100180.97;5011045;28;20049;-62
2021/06/28 05:25:05;;;;;;;11.68;10.10;;;;;;;21.95;76.33;100197.06;5012754;28;20775;-64
2021/06/28 05:27:33;;;;;;;12.25;10.20;;;;;;;22.02;76.12;100193.69;5017315;28;20051;-61
2021/06/28 05:30:03;;;;;;;13.43;10.05;;;;;;;22.06;76.14;100196.91;5017362;28;20052;-62
2021/06/28 05:32:30;;;;;;;13.18;11.80;;;;;;;22.07;75.89;100205.84;5013054;28;20095;-61
2021/06/28 05:34:57;;;;;;;11.45;10.07;;;;;;;22.13;75.74;100210.66;5014040;28;20049;-60
2021/06/28 05:37:23;;;;;;;11.90;10.15;;;;;;;22.19;75.50;100212.75;5015248;28;20046;-61
2021/06/28 05:39:50;;;;;;;12.23;10.90;;;;;;;22.19;74.44;100212.75;5002439;28;20046;-60
2021/06/28 05:42:17;;;;;;;14.95;9.88;;;;;;;22.17;74.88;100212.91;5016501;28;20056;-61
2021/06/28 05:44:43;;;;;;;12.48;10.38;;;;;;;22.23;75.16;100206.03;5018303;28;20049;-62
2021/06/28 05:47:12;;;;;;;15.85;10.07;;;;;;;22.33;74.95;100198.75;5019194;28;20124;-61
2021/06/28 05:49:40;;;;;;;12.07;10.93;;;;;;;22.49;74.50;100196.22;5013519;28;20049;-61
2021/06/28 05:52:08;;;;;;;12.00;10.60;;;;;;;22.64;74.20;100197.38;5014022;28;20053;-61
2021/06/28 05:54:34;;;;;;;15.68;11.07;;;;;;;22.73;72.63;100214.50;5017006;28;20412;-59
2021/06/28 05:57:01;;;;;;;15.48;10.05;;;;;;;22.82;73.11;100218.16;5011085;28;20048;-59
2021/06/28 05:59:28;;;;;;;13.25;9.60;;;;;;;22.90;72.72;100223.63;5013952;28;20068;-59
2021/06/28 06:01:54;;;;;;;14.27;10.95;;;;;;;22.88;72.22;100217.53;5018687;28;20059;-60
2021/06/28 06:04:21;;;;;;;15.38;10.98;;;;;;;22.72;72.38;100218.19;5007910;28;20053;-59
2021/06/28 06:06:47;;;;;;;11.63;10.43;;;;;;;22.62;73.19;100218.28;5013249;28;20046;-58
2021/06/28 06:09:14;;;;;;;13.60;10.25;;;;;;;22.62;74.25;100215.56;5015031;28;20049;-59
2021/06/28 06:11:40;;;;;;;11.25;10.05;;;;;;;22.84;74.52;100210.72;5014310;28;20049;-58
2021/06/28 06:14:07;;;;;;;13.35;10.68;;;;;;;23.31;71.92;100220.22;5015837;28;20050;-58
2021/06/28 06:16:33;;;;;;;11.90;9.82;;;;;;;23.86;68.29;100225.34;5015264;28;20141;-55
2021/06/28 06:19:00;;;;;;;12.18;10.45;;;;;;;24.35;66.74;100223.72;5012471;28;20046;-56
2021/06/28 06:21:26;;;;;;;11.88;9.98;;;;;;;24.80;64.44;100226.00;5021889;28;20106;-58
2021/06/28 06:23:53;;;;;;;11.57;9.40;;;;;;;25.18;63.90;100223.69;5023929;28;20047;-57
2021/06/28 06:26:20;;;;;;;11.80;10.10;;;;;;;25.63;62.70;100217.72;5017944;28;20136;-57
2021/06/28 06:28:47;;;;;;;12.15;10.02;;;;;;;26.02;60.73;100219.63;5014279;28;20049;-58
2021/06/28 06:31:13;;;;;;;13.00;8.90;;;;;;;26.35;59.57;100220.34;5028097;28;20092;-57
2021/06/28 06:33:40;;;;;;;9.57;8.68;;;;;;;26.59;59.13;100212.06;5017380;28;20063;-60
2021/06/28 06:36:06;;;;;;;11.23;9.98;;;;;;;26.75;57.11;100216.56;5020952;28;20041;-60
2021/06/28 06:38:33;;;;;;;12.73;9.10;;;;;;;26.95;56.95;100227.78;5024473;28;20056;-60
2021/06/28 06:41:00;;;;;;;12.73;10.32;;;;;;;27.03;55.90;100222.31;5010326;28;20064;-58
2021/06/28 06:43:27;;;;;;;9.35;8.43;;;;;;;26.81;57.19;100234.81;5022998;28;20050;-60
2021/06/28 06:45:53;;;;;;;10.55;9.18;;;;;;;26.56;57.44;100220.56;5025603;28;20053;-57
2021/06/28 06:48:20;;;;;;;13.10;9.27;;;;;;;26.31;58.22;100221.72;5022015;28;20528;-57
2021/06/28 06:50:47;;;;;;;10.70;9.43;;;;;;;26.05;58.77;100224.72;5016151;28;20049;-58
2021/06/28 06:53:14;;;;;;;9.60;8.68;;;;;;;25.68;59.91;100222.63;5018431;28;20045;-59
2021/06/28 06:55:40;;;;;;;12.10;10.90;;;;;;;25.32;60.75;100216.75;5013872;28;20041;-59
2021/06/28 06:58:10;;;;;;;11.52;9.20;;;;;;;25.14;62.41;100222.34;5016657;28;20061;-59
2021/06/28 07:00:40;;;;;;;12.05;9.75;;;;;;;;;;5014169;28;20045;-57
2021/06/28 07:03:08;;;;;;;10.60;8.60;;;;;;;24.97;63.21;100228.75;5009011;28;20057;-59
2021/06/28 07:05:35;;;;;;;15.55;9.35;;;;;;;24.86;63.64;100221.78;5002661;28;20551;-58
2021/06/28 07:08:03;;;;;;;11.57;8.68;;;;;;;24.87;64.67;100222.66;4998648;28;20061;-60
2021/06/28 07:10:30;;;;;;;11.40;8.40;;;;;;;24.88;63.54;100227.00;5015262;28;20757;-58
2021/06/28 07:12:56;;;;;;;16.45;9.07;;;;;;;24.91;63.75;100242.94;5026875;28;20137;-58
2021/06/28 07:15:23;;;;;;;11.55;9.68;;;;;;;25.30;62.32;100244.00;5010657;28;20053;-57
2021/06/28 07:17:50;;;;;;;9.60;8.57;;;;;;;25.78;60.44;100234.13;5013164;28;20536;-59
2021/06/28 07:20:22;;;;;;;9.85;8.85;;;;;;;26.14;59.64;100239.91;5015568;28;20053;-57
2021/06/28 07:22:52;;;;;;;9.65;8.57;;;;;;;26.22;58.71;100248.03;5016144;28;20064;-60
2021/06/28 07:25:19;;;;;;;8.77;7.90;;;;;;;26.11;59.29;100248.44;5023382;28;20696;-58
2021/06/28 07:27:46;;;;;;;12.63;9.25;;;;;;;25.83;58.93;100235.28;5023830;28;20056;-59
2021/06/28 07:30:16;;;;;;;10.55;8.65;;;;;;;25.92;60.80;100249.69;5024555;28;20615;-58
2021/06/28 07:32:43;;;;;;;12.32;9.35;;;;;;;26.18;59.39;100244.81;5011044;28;20096;-58
2021/06/28 07:35:11;;;;;;;10.82;8.88;;;;;;;26.36;59.62;100251.91;5020544;28;20049;-59
2021/06/28 07:37:39;;;;;;;11.32;8.02;;;;;;;26.69;58.34;100253.41;5022972;28;20051;-55
2021/06/28 07:40:07;;;;;;;10.77;8.10;;;;;;;26.92;57.21;100256.97;5019684;28;20049;-55
2021/06/28 07:42:34;;;;;;;8.10;7.30;;;;;;;27.22;56.66;100254.44;5013067;28;20053;-55
2021/06/28 07:45:00;;;;;;;9.40;8.50;;;;;;;27.37;55.47;100258.03;5017323;28;20064;-57
2021/06/28 07:47:27;;;;;;;9.63;8.63;;;;;;;27.31;55.96;100263.34;5016107;28;20498;-57
2021/06/28 07:49:54;;;;;;;10.85;9.43;;;;;;;27.31;55.30;100247.88;5009230;28;20515;-57
2021/06/28 07:52:20;;;;;;;10.57;8.75;;;;;;;27.39;55.35;100244.25;5018776;28;20118;-57
2021/06/28 07:54:47;;;;;;;11.23;8.98;;;;;;;27.43;54.49;100251.00;5017554;28;20053;-54
2021/06/28 07:57:14;;;;;;;9.60;8.70;;;;;;;27.25;55.58;100243.16;5027410;28;20500;-56
2021/06/28 07:59:42;;;;;;;7.93;7.13;;;;;;;27.31;56.66;100247.03;5004426;28;20077;-56
2021/06/28 08:02:08;;;;;;;9.70;8.38;;;;;;;27.40;55.20;100249.50;5009849;28;20049;-56
2021/06/28 08:04:35;;;;;;;12.05;8.32;;;;;;;27.54;55.92;100243.25;5008501;28;20046;-61
2021/06/28 08:07:02;;;;;;;11.57;9.50;;;;;;;27.55;54.93;100247.63;5024354;28;20049;-62
2021/06/28 08:09:28;;;;;;;9.65;8.15;;;;;;;27.49;54.64;100248.41;5024687;28;20049;-61
2021/06/28 08:11:58;;;;;;;8.40;7.60;;;;;;;27.54;55.63;100256.88;5027987;28;20049;-62
2021/06/28 08:14:26;;;;;;;9.63;8.60;;;;;;;27.68;54.69;100249.78;5012216;28;20061;-60
2021/06/28 08:16:53;;;;;;;8.18;7.38;;;;;;;27.74;54.25;100248.16;5029030;28;20060;-60
2021/06/28 08:19:19;;;;;;;8.75;7.20;;;;;;;27.80;54.78;100252.88;5027987;28;20065;-61
2021/06/28 08:21:48;;;;;;;8.10;7.32;;;;;;;27.79;52.88;100251.19;5012620;28;20064;-61
2021/06/28 08:24:15;;;;;;;8.20;6.63;;;;;;;27.83;53.66;100252.50;5012810;28;20140;-60
2021/06/28 08:26:44;;;;;;;7.45;6.75;;;;;;;27.71;53.20;100237.66;5019311;28;20041;-61
2021/06/28 08:29:11;;;;;;;7.80;6.97;;;;;;;27.68;54.26;100235.34;5009676;28;20054;-60
2021/06/28 08:31:39;;;;;;;7.95;7.15;;;;;;;27.73;52.92;100244.59;5020592;28;20061;-60
2021/06/28 08:34:15;;;;;;;7.18;6.47;;;;;;;27.76;52.41;100238.78;5016670;28;20463;-59
2021/06/28 08:36:46;;;;;;;6.10;5.50;;;;;;;27.88;50.92;100236.44;5012726;28;20056;-59
2021/06/28 08:39:15;;;;;;;6.03;5.28;;;;;;;27.99;52.04;100244.16;5006814;28;20050;-60
2021/06/28 08:41:44;;;;;;;5.70;5.20;;;;;;;27.85;50.51;100245.00;4998940;28;20049;-59
2021/06/28 08:44:12;;;;;;;5.53;5.13;;;;;;;27.70;50.82;100245.00;5016001;28;20332;-59
2021/06/28 08:46:40;;;;;;;7.43;6.32;;;;;;;27.62;51.24;100249.66;5020199;28;20054;-61
2021/06/28 08:49:07;;;;;;;7.47;6.57;;;;;;;27.41;51.93;100242.19;5013338;28;20049;-60
2021/06/28 08:51:34;;;;;;;6.55;5.75;;;;;;;27.22;52.45;100241.69;5016245;28;20053;-60
2021/06/28 08:54:06;;;;;;;7.40;5.82;;;;;;;27.21;53.41;100242.72;5016793;28;20056;-60
2021/06/28 08:56:34;;;;;;;5.78;5.15;;;;;;;27.30;52.06;100239.91;5021304;28;20050;-61
2021/06/28 08:59:06;;;;;;;6.93;5.13;;;;;;;27.43;51.34;100240.97;5016076;28;20049;-61
2021/06/28 09:01:35;;;;;;;5.60;4.90;;;;;;;27.47;50.62;100238.72;5015140;28;20076;-60
2021/06/28 09:04:03;;;;;;;7.45;6.60;;;;;;;27.47;51.70;100239.56;5012107;28;20049;-59
2021/06/28 09:06:31;;;;;;;10.60;6.03;;;;;;;27.51;51.74;100237.34;5015462;28;20053;-60
2021/06/28 09:09:09;;;;;;;6.18;5.57;;;;;;;27.73;51.38;100230.16;5014210;28;20063;-61
2021/06/28 09:11:38;;;;;;;17.45;12.00;;;;;;;28.01;51.12;100223.03;5018755;28;20051;-60
2021/06/28 09:14:07;;;;;;;14.43;10.02;;;;;;;28.11;49.49;100222.75;5011546;28;20112;-57
2021/06/28 09:16:35;;;;;;;14.30;9.27;;;;;;;28.19;49.27;100226.22;4996285;28;20057;-58
2021/06/28 09:19:12;;;;;;;5.15;4.68;;;;;;;28.19;47.78;100226.22;5001692;28;20435;-58
2021/06/28 09:21:40;;;;;;;4.80;4.30;;;;;;;28.21;47.43;100232.31;5012122;28;20045;-57
2021/06/28 09:24:30;;;;;;;5.20;4.70;;;;;;;28.23;47.49;100246.59;5021309;28;20054;-58
2021/06/28 09:27:20;;;;;;;5.82;5.10;;;;;;;28.22;47.64;100241.34;5018837;28;20485;-57
2021/06/28 09:29:52;;;;;;;5.95;5.40;;;;;;;27.99;47.53;100238.72;5009795;28;20061;-56
2021/06/28 09:32:21;;;;;;;4.53;4.13;;;;;;;27.80;47.83;100250.16;5012589;28;20120;-57
2021/06/28 09:34:50;;;;;;;4.43;4.10;;;;;;;27.67;48.51;100248.09;5012026;28;20621;-56
2021/06/28 09:37:20;;;;;;;4.97;3.92;;;;;;;27.71;48.14;100262.13;5011187;28;20992;-57
2021/06/28 09:39:49;;;;;;;7.20;4.32;;;;;;;27.75;46.79;100268.91;5012618;28;20141;-57
2021/06/28 09:42:17;;;;;;;4.13;3.33;;;;;;;27.82;46.01;100269.88;5015225;28;20056;-55
2021/06/28 09:45:18;;;;;;;4.03;3.63;;;;;;;27.80;45.90;100269.22;5011855;28;20396;-55
2021/06/28 09:47:44;;;;;;;3.60;3.30;;;;;;;27.88;46.53;100269.09;4969454;28;20400;-55
2021/06/28 09:50:13;;;;;;;4.47;4.07;;;;;;;27.81;46.77;100269.03;5006904;28;20052;-58
2021/06/28 09:52:53;;;;;;;5.38;4.15;;;;;;;27.70;47.12;100263.19;5012173;28;20054;-60
2021/06/28 09:55:26;;;;;;;5.65;4.57;;;;;;;27.75;48.40;100250.72;5015935;28;20638;-59
2021/06/28 09:58:06;;;;;;;7.20;4.70;;;;;;;27.83;47.94;100257.94;5015309;28;20443;-60
2021/06/28 10:00:40;;;;;;;5.28;4.03;;;;;;;27.87;46.72;100259.25;5013230;28;20069;-58
2021/06/28 10:03:41;;;;;;;4.15;3.75;;;;;;;27.86;46.10;100252.16;5001633;28;21690;-59
2021/06/28 10:09:06;;;;;;;8.48;4.00;;;;;;;27.97;46.42;100253.53;5016092;28;20053;-61
2021/06/28 10:11:41;;;;;;;5.50;3.92;;;;;;;27.94;46.51;100265.63;5016333;28;20050;-61
2021/06/28 10:14:08;;;;;;;7.15;4.65;;;;;;;27.89;46.57;100263.47;5028698;28;20045;-61
2021/06/28 10:16:37;;;;;;;6.43;3.95;;;;;;;27.81;46.12;100255.41;5025607;28;20053;-61
2021/06/28 10:19:07;;;;;;;11.15;4.03;;;;;;;27.75;46.06;100250.72;5031985;28;20045;-62
2021/06/28 10:21:35;;;;;;;4.47;3.63;;;;;;;27.78;45.63;100244.91;5029553;28;20049;-62
2021/06/28 10:24:02;;;;;;;3.95;3.53;;;;;;;27.81;45.41;100249.97;5037837;28;21078;-61
2021/06/28 10:26:29;;;;;;;4.30;3.90;;;;;;;28.01;45.14;100249.41;5027751;28;20057;-60
2021/06/28 10:28:56;;;;;;;4.03;3.65;;;;;;;28.13;44.34;100243.31;5023158;28;20056;-61
2021/06/28 10:31:22;;;;;;;3.78;3.38;;;;;;;28.19;43.99;100247.16;5030275;28;20057;-60
2021/06/28 10:33:59;;;;;;;4.38;3.97;;;;;;;28.23;44.51;100240.31;5035812;28;20092;-61
2021/06/28 10:36:36;;;;;;;5.57;4.05;;;;;;;28.38;44.26;100234.84;5029987;28;20520;-61
2021/06/28 10:39:06;;;;;;;4.45;3.85;;;;;;;28.42;44.30;100245.16;5031884;28;20057;-61
2021/06/28 10:41:34;;;;;;;4.50;3.90;;;;;;;28.50;44.09;100230.56;5021531;28;20485;-59
2021/06/28 10:44:00;;;;;;;5.68;3.97;;;;;;;28.52;43.51;100234.81;5015238;28;20049;-60
2021/06/28 10:46:35;;;;;;;4.38;3.97;;;;;;;28.57;45.09;100234.22;5025095;28;20049;-62
2021/06/28 10:49:03;;;;;;;5.68;3.90;;;;;;;28.55;43.38;100220.81;5008987;28;20055;-61
2021/06/28 10:51:50;;;;;;;7.68;6.22;;;;;;;28.47;43.94;100212.75;5023367;28;20064;-62
2021/06/28 10:54:37;;;;;;;4.53;3.83;;;;;;;28.44;44.03;100206.84;5027691;28;20084;-60
2021/06/28 10:57:05;;;;;;;4.28;3.58;;;;;;;28.40;45.31;100200.09;5026808;28;20057;-61
2021/06/28 10:59:54;;;;;;;4.15;3.78;;;;;;;28.37;44.62;100200.47;5023808;28;20044;-62
2021/06/28 11:02:21;;;;;;;3.65;3.30;;;;;;;28.24;44.09;100193.84;5024915;28;20052;-62
2021/06/28 11:04:55;;;;;;;4.80;3.53;;;;;;;28.04;44.34;100206.31;5036446;28;20045;-60
2021/06/28 11:07:22;;;;;;;3.38;3.08;;;;;;;27.90;44.42;100207.16;5029031;28;20053;-59
2021/06/28 11:09:54;;;;;;;3.50;3.20;;;;;;;27.85;45.13;100207.75;5014869;28;20057;-61
2021/06/28 11:12:29;;;;;;;4.05;3.33;;;;;;;27.85;45.58;100207.75;5024406;28;20045;-61
2021/06/28 11:15:20;;;;;;;3.35;3.05;;;;;;;27.83;44.71;100198.94;5040501;28;20049;-60
2021/06/28 11:17:55;;;;;;;3.70;3.40;;;;;;;27.96;44.51;100203.72;5004295;28;20748;-61
2021/06/28 11:20:32;;;;;;;3.63;3.33;;;;;;;28.21;44.62;100207.81;5005911;28;20045;-59
2021/06/28 11:23:04;;;;;;;3.67;3.15;;;;;;;28.42;44.82;100200.75;5032683;28;20115;-61
2021/06/28 11:25:35;;;;;;;4.78;4.10;;;;;;;28.56;44.24;100199.84;5026605;28;20077;-61
2021/06/28 11:28:02;;;;;;;4.63;3.35;;;;;;;28.70;43.88;100200.84;5012444;28;20049;-60